Time;durP1;ratioP1;P1;durP2;ratioP2;P2;SDS_P1;SDS_P2;PMS_P1;PMS_P2;Temp;Humidity;BMP_temperature;BMP_pressure;BME280_temperature;BME280_humidity;BME280_pressure;Samples;Min_cycle;Max_cycle;Signal;HPM_P1;HPM_P2
2020/12/23 00:07:25;;;;;;;9.38;6.32;;;;;;;10.49;92.96;99803.53;5078898;28;20356;-89
2020/12/23 00:09:50;;;;;;;8.07;5.82;;;;;;;10.50;93.29;99803.41;5068845;28;20033;-89
2020/12/23 00:12:16;;;;;;;9.82;5.28;;;;;;;10.50;93.46;99805.19;5066723;28;20020;-89
2020/12/23 00:14:41;;;;;;;11.75;5.10;;;;;;;10.49;93.88;99799.09;5057065;28;20036;-90
2020/12/23 00:17:06;;;;;;;11.65;4.40;;;;;;;10.62;93.36;99796.34;5048776;28;20022;-89
2020/12/23 00:19:33;;;;;;;6.82;3.63;;;;;;;10.84;92.87;99794.66;5049168;28;20049;-89
2020/12/23 00:21:59;;;;;;;7.05;3.53;;;;;;;10.88;91.75;99796.09;5066472;28;20467;-89
2020/12/23 00:24:24;;;;;;;5.70;3.72;;;;;;;10.95;91.15;99786.78;5066303;28;20078;-89
2020/12/23 00:26:49;;;;;;;11.13;4.30;;;;;;;11.16;90.86;99793.91;5067235;28;20390;-89
2020/12/23 00:29:15;;;;;;;9.65;3.60;;;;;;;11.18;90.26;99786.75;5068569;28;20487;-89
2020/12/23 00:31:40;;;;;;;7.43;3.20;;;;;;;11.26;90.24;99784.34;5066581;28;20086;-89
2020/12/23 00:34:06;;;;;;;8.35;3.67;;;;;;;11.52;88.84;99784.84;5066725;28;20037;-89
2020/12/23 00:36:31;;;;;;;9.50;3.22;;;;;;;11.52;88.18;99784.84;5067173;28;20056;-89
2020/12/23 00:38:57;;;;;;;12.68;4.50;;;;;;;11.32;88.64;99789.94;5065844;28;20036;-89
2020/12/23 00:41:22;;;;;;;10.20;4.57;;;;;;;11.45;88.55;99779.28;5058128;28;20107;-89
2020/12/23 00:43:48;;;;;;;6.35;3.80;;;;;;;11.48;88.55;99779.00;5068100;28;20073;-89
2020/12/23 00:46:14;;;;;;;8.10;3.65;;;;;;;11.60;88.32;99773.72;5066080;28;20025;-89
2020/12/23 00:48:43;;;;;;;7.00;3.63;;;;;;;11.73;87.62;99770.88;5067552;28;20029;-89
2020/12/23 00:51:15;;;;;;;8.68;3.15;;;;;;;11.78;87.06;99764.28;5067556;28;20071;-89
2020/12/23 00:53:43;;;;;;;8.18;2.90;;;;;;;11.66;87.15;99765.31;5062405;28;20430;-89
2020/12/23 00:56:10;;;;;;;5.13;3.03;;;;;;;11.58;87.54;99768.56;5065574;28;20028;-89
2020/12/23 00:58:35;;;;;;;9.57;3.60;;;;;;;11.56;87.62;99759.16;5068347;28;20035;-88
2020/12/23 01:01:02;;;;;;;7.85;3.67;;;;;;;11.43;88.41;99759.31;5066634;28;20390;-89
2020/12/23 01:03:27;;;;;;;6.05;3.15;;;;;;;11.47;88.35;99756.31;5066593;28;20028;-89
2020/12/23 01:05:52;;;;;;;8.02;3.38;;;;;;;11.58;87.79;99739.66;5067428;28;20479;-88
2020/12/23 01:08:19;;;;;;;11.27;3.70;;;;;;;11.93;86.21;99742.94;5051793;28;20430;-89
2020/12/23 01:10:47;;;;;;;9.82;4.15;;;;;;;11.90;86.28;99730.88;5053278;28;20121;-88
2020/12/23 01:13:14;;;;;;;8.25;3.67;;;;;;;12.17;85.17;99738.25;5054406;28;20108;-88
2020/12/23 01:15:40;;;;;;;8.07;3.35;;;;;;;11.97;86.18;99739.13;5054351;28;20079;-88
2020/12/23 01:18:06;;;;;;;7.65;2.85;;;;;;;11.99;85.47;99737.19;5054246;28;20406;-88
2020/12/23 01:20:32;;;;;;;6.10;2.55;;;;;;;12.02;85.64;99734.28;5054475;28;20033;-89
2020/12/23 01:22:57;;;;;;;8.00;2.75;;;;;;;12.03;85.46;99730.69;5037329;28;20049;-88
2020/12/23 01:25:22;;;;;;;5.93;2.10;;;;;;;12.00;85.73;99725.69;5033145;28;20065;-88
2020/12/23 01:27:48;;;;;;;6.40;1.90;;;;;;;12.02;84.80;99724.59;5034106;28;20464;-88
2020/12/23 01:30:16;;;;;;;8.27;2.70;;;;;;;11.96;85.04;99713.75;5033021;28;20072;-88
2020/12/23 01:32:41;;;;;;;6.28;2.00;;;;;;;11.87;85.18;99716.19;5034237;28;20025;-88
2020/12/23 01:35:07;;;;;;;6.53;1.75;;;;;;;11.88;85.61;99712.56;5032768;28;20029;-88
2020/12/23 01:37:32;;;;;;;7.68;2.17;;;;;;;11.81;85.61;99711.44;5049304;28;20364;-88
2020/12/23 01:39:57;;;;;;;5.97;1.90;;;;;;;11.78;85.69;99714.31;5053975;28;20032;-88
2020/12/23 01:42:23;;;;;;;4.15;1.50;;;;;;;11.84;85.69;99712.97;5052045;28;20120;-88
2020/12/23 01:44:48;;;;;;;6.68;1.77;;;;;;;11.96;84.79;99711.13;5044364;28;20503;-88
2020/12/23 01:47:22;;;;;;;8.48;1.48;;;;;;;12.00;85.06;99715.16;5033677;28;20023;-88
2020/12/23 01:49:49;;;;;;;4.68;1.55;;;;;;;12.11;84.71;99725.63;5040547;28;20475;-88
2020/12/23 01:52:16;;;;;;;6.10;1.52;;;;;;;12.11;85.09;99728.25;5053580;28;20112;-88
2020/12/23 01:54:41;;;;;;;4.25;2.10;;;;;;;12.17;84.98;99727.72;5053556;28;20087;-88
2020/12/23 01:57:12;;;;;;;5.20;1.40;;;;;;;12.18;84.55;99731.19;5054066;28;20465;-88
2020/12/23 01:59:38;;;;;;;7.30;1.80;;;;;;;12.15;84.75;99731.47;5043838;28;20025;-89
2020/12/23 02:02:30;;;;;;;3.50;1.20;;;;;;;11.98;85.34;99723.19;5052842;28;20593;-89
2020/12/23 02:04:59;;;;;;;4.38;1.52;;;;;;;11.93;85.90;99714.00;5051657;28;20136;-88
2020/12/23 02:07:26;;;;;;;5.95;1.60;;;;;;;11.88;85.96;99711.75;5053295;28;20509;-88
2020/12/23 02:09:56;;;;;;;4.32;1.17;;;;;;;11.86;86.29;99719.75;5053387;28;20056;-88
2020/12/23 02:12:22;;;;;;;5.05;1.80;;;;;;;12.01;85.54;99724.75;5052091;28;20021;-88
2020/12/23 02:14:48;;;;;;;5.03;1.25;;;;;;;11.96;85.38;99719.84;5047277;28;20383;-88
2020/12/23 02:17:14;;;;;;;3.25;1.40;;;;;;;11.93;85.39;99721.91;5051043;28;20035;-88
2020/12/23 02:19:51;;;;;;;4.43;1.42;;;;;;;11.79;85.87;99712.50;5051800;28;20036;-88
2020/12/23 02:22:21;;;;;;;5.20;1.45;;;;;;;11.83;85.96;99704.25;5051895;28;20131;-88
2020/12/23 02:24:48;;;;;;;3.85;1.35;;;;;;;11.70;85.82;99714.94;5050300;28;20033;-88
2020/12/23 02:27:14;;;;;;;3.08;1.33;;;;;;;11.63;86.24;99712.97;5051242;28;20729;-88
2020/12/23 02:29:45;;;;;;;5.82;2.00;;;;;;;11.58;86.65;99709.91;5053465;28;20045;-88
2020/12/23 02:32:11;;;;;;;4.07;1.38;;;;;;;11.63;86.59;99705.06;5041584;28;20486;-88
2020/12/23 02:34:36;;;;;;;2.90;1.40;;;;;;;11.63;86.47;99711.19;5051569;28;20035;-88
2020/12/23 02:37:04;;;;;;;3.90;1.30;;;;;;;11.64;86.27;99706.75;5052673;28;20029;-88
2020/12/23 02:39:29;;;;;;;5.05;1.92;;;;;;;11.56;86.38;99714.44;5068185;28;20112;-88
2020/12/23 02:41:56;;;;;;;8.25;2.20;;;;;;;11.76;85.98;99708.34;5068136;28;20562;-89
2020/12/23 02:44:22;;;;;;;6.35;1.90;;;;;;;11.72;86.50;99699.06;5052000;28;20472;-88
2020/12/23 02:46:54;;;;;;;4.95;1.80;;;;;;;11.72;86.43;99683.28;5036839;28;20075;-88
2020/12/23 02:49:20;;;;;;;3.38;2.15;;;;;;;11.94;85.80;99678.84;5031517;28;20059;-88
2020/12/23 02:51:45;;;;;;;4.82;2.55;;;;;;;11.94;85.75;99679.69;5048207;28;20131;-89
2020/12/23 02:54:10;;;;;;;5.00;2.50;;;;;;;11.93;85.27;99671.91;5032433;28;20104;-88
2020/12/23 02:56:36;;;;;;;5.05;2.47;;;;;;;11.90;84.90;99673.00;5042581;28;20068;-88
2020/12/23 02:59:01;;;;;;;5.75;2.40;;;;;;;11.82;85.04;99671.00;5052142;28;20060;-88
2020/12/23 03:01:26;;;;;;;6.32;2.80;;;;;;;11.80;85.52;99669.47;5050852;28;20475;-88
2020/12/23 03:03:52;;;;;;;6.68;3.08;;;;;;;11.74;85.30;99665.56;5051136;28;20029;-88
2020/12/23 03:06:17;;;;;;;4.03;2.58;;;;;;;12.67;82.36;99656.66;5059440;28;20037;-88
2020/12/23 03:08:42;;;;;;;2.97;2.17;;;;;;;13.00;80.67;99643.25;5032335;28;20072;-88
2020/12/23 03:11:08;;;;;;;5.20;3.28;;;;;;;12.80;81.10;99643.22;5040851;28;20033;-88
2020/12/23 03:13:33;;;;;;;3.17;2.78;;;;;;;13.02;80.57;99638.66;5051873;28;20159;-88
2020/12/23 03:15:58;;;;;;;2.55;2.35;;;;;;;13.09;80.12;99630.06;5050916;28;20503;-88
2020/12/23 03:18:24;;;;;;;4.45;2.78;;;;;;;13.07;79.58;99625.88;5051753;28;20496;-88
2020/12/23 03:20:49;;;;;;;3.53;2.92;;;;;;;13.19;80.13;99618.66;5045450;28;20476;-89
2020/12/23 03:23:14;;;;;;;2.78;2.40;;;;;;;13.24;79.67;99629.63;5032159;28;20203;-88
2020/12/23 03:25:40;;;;;;;4.45;2.30;;;;;;;13.24;79.33;99633.09;5049187;28;20052;-88
2020/12/23 03:28:05;;;;;;;2.15;1.55;;;;;;;13.25;79.42;99626.88;5051892;28;20040;-88
2020/12/23 03:30:30;;;;;;;4.65;2.85;;;;;;;13.09;79.50;99624.81;5036062;28;20035;-88
2020/12/23 03:32:56;;;;;;;4.68;3.22;;;;;;;12.85;80.58;99619.94;5049950;28;20039;-88
2020/12/23 03:35:21;;;;;;;5.00;3.47;;;;;;;12.80;81.32;99611.63;5051553;28;20120;-89
2020/12/23 03:37:46;;;;;;;3.60;1.40;;;;;;;12.88;80.81;99605.66;5051341;28;20047;-88
2020/12/23 03:40:12;;;;;;;5.25;1.20;;;;;;;12.94;80.15;99610.38;5051593;28;20920;-88
2020/12/23 03:42:37;;;;;;;5.00;1.00;;;;;;;13.07;78.93;99599.53;5051632;28;20091;-89
2020/12/23 03:45:02;;;;;;;6.10;1.10;;;;;;;13.14;79.00;99599.81;5048662;28;20692;-89
2020/12/23 03:47:28;;;;;;;6.03;1.00;;;;;;;12.99;78.55;99596.78;5051251;28;20029;-89
2020/12/23 03:49:53;;;;;;;7.93;1.05;;;;;;;13.01;78.78;99598.31;5051505;28;20037;-89
2020/12/23 03:52:18;;;;;;;9.82;2.50;;;;;;;12.94;78.95;99586.66;5051526;28;20033;-89
2020/12/23 03:54:44;;;;;;;5.50;1.00;;;;;;;12.97;79.03;99589.00;5051408;28;20116;-89
2020/12/23 03:57:09;;;;;;;3.75;0.82;;;;;;;13.03;79.52;99585.84;5051984;28;20068;-88
2020/12/23 03:59:34;;;;;;;5.97;1.10;;;;;;;12.92;79.15;99578.06;5063564;28;20061;-89
2020/12/23 04:02:00;;;;;;;11.25;2.33;;;;;;;12.95;79.36;99585.69;5062556;28;20056;-89
2020/12/23 04:04:25;;;;;;;3.80;0.88;;;;;;;13.04;79.29;99595.38;5051582;28;20032;-89
2020/12/23 04:06:50;;;;;;;6.47;1.15;;;;;;;13.07;79.23;99599.53;5051011;28;20033;-88
2020/12/23 04:09:16;;;;;;;9.85;2.15;;;;;;;13.12;78.21;99584.16;5051566;28;20428;-88
2020/12/23 04:11:41;;;;;;;9.77;2.08;;;;;;;12.82;79.68;99579.88;5050243;28;20471;-88
2020/12/23 04:14:06;;;;;;;6.78;1.45;;;;;;;12.78;80.33;99575.88;5046435;28;20498;-88
2020/12/23 04:16:32;;;;;;;7.47;2.15;;;;;;;12.76;80.11;99573.34;5043092;28;20368;-89
2020/12/23 04:18:57;;;;;;;7.07;1.30;;;;;;;12.68;80.91;99565.31;5051011;28;20025;-89
2020/12/23 04:21:22;;;;;;;7.85;1.10;;;;;;;12.70;80.24;99561.56;5050155;28;20025;-89
2020/12/23 04:23:48;;;;;;;8.27;1.73;;;;;;;12.67;80.58;99561.00;5051056;28;20087;-89
2020/12/23 04:26:13;;;;;;;4.95;1.13;;;;;;;12.55;81.17;99555.03;5050239;28;20077;-89
2020/12/23 04:28:38;;;;;;;9.57;1.17;;;;;;;12.69;81.16;99553.81;5050969;28;20032;-89
2020/12/23 04:31:04;;;;;;;7.65;1.30;;;;;;;12.82;80.35;99548.25;5047529;28;20517;-89
2020/12/23 04:33:29;;;;;;;11.13;1.65;;;;;;;12.85;80.57;99537.44;5051307;28;20454;-89
2020/12/23 04:35:54;;;;;;;7.45;1.80;;;;;;;12.90;80.59;99532.59;5051002;28;20040;-89
2020/12/23 04:38:20;;;;;;;3.45;1.17;;;;;;;12.91;80.50;99531.59;5050670;28;20037;-89
2020/12/23 04:40:46;;;;;;;3.88;0.85;;;;;;;12.93;80.48;99528.84;5050866;28;20025;-89
2020/12/23 04:43:11;;;;;;;3.53;0.75;;;;;;;12.90;80.29;99522.88;5053925;28;20090;-89
2020/12/23 04:45:37;;;;;;;3.80;0.93;;;;;;;12.93;80.47;99521.75;5069450;28;20414;-89
2020/12/23 04:48:03;;;;;;;2.28;0.90;;;;;;;12.93;80.48;99521.75;5050847;28;20033;-89
2020/12/23 04:50:32;;;;;;;12.80;0.98;;;;;;;12.93;80.29;99524.38;5054481;28;20021;-89
2020/12/23 04:52:58;;;;;;;4.03;0.68;;;;;;;12.99;80.25;99518.53;5054593;28;20029;-89
2020/12/23 04:55:23;;;;;;;2.50;0.80;;;;;;;12.97;79.94;99522.31;5054519;28;20036;-89
2020/12/23 04:57:54;;;;;;;6.07;1.27;;;;;;;12.99;80.29;99528.25;5053977;28;20426;-89
2020/12/23 05:00:20;;;;;;;2.07;0.80;;;;;;;12.95;80.22;99522.44;5054069;28;20112;-89
2020/12/23 05:02:45;;;;;;;7.10;1.38;;;;;;;13.00;80.01;99524.66;5035884;28;20116;-89
2020/12/23 05:05:10;;;;;;;7.35;1.10;;;;;;;12.96;79.62;99510.13;5035265;28;20029;-87
2020/12/23 05:07:36;;;;;;;8.30;0.90;;;;;;;13.02;80.35;99517.44;5054393;28;20029;-89
2020/12/23 05:10:06;;;;;;;6.43;1.05;;;;;;;13.18;79.74;99511.59;5052985;28;20025;-89
2020/12/23 05:12:31;;;;;;;14.02;1.55;;;;;;;13.00;80.39;99504.41;5053125;28;20487;-88
2020/12/23 05:15:03;;;;;;;8.77;1.33;;;;;;;12.97;80.39;99499.41;5053650;28;20024;-89
2020/12/23 05:17:30;;;;;;;9.40;1.48;;;;;;;12.83;80.72;99487.50;5043421;28;20342;-89
2020/12/23 05:19:55;;;;;;;6.65;1.35;;;;;;;12.94;80.91;99489.16;5054164;28;20119;-89
2020/12/23 05:22:21;;;;;;;6.28;1.42;;;;;;;12.94;80.99;99489.16;5054332;28;20313;-89
2020/12/23 05:24:52;;;;;;;5.88;1.40;;;;;;;12.99;80.17;99497.47;5054041;28;20062;-89
2020/12/23 05:27:18;;;;;;;6.23;1.43;;;;;;;13.01;80.15;99487.66;5052896;28;20075;-89
2020/12/23 05:29:47;;;;;;;10.05;2.20;;;;;;;12.85;80.44;99492.66;5054292;28;20653;-89
2020/12/23 05:32:13;;;;;;;8.70;2.20;;;;;;;12.65;81.62;99487.41;5038469;28;20476;-89
2020/12/23 05:34:41;;;;;;;9.98;2.13;;;;;;;12.56;82.19;99488.25;5033998;28;20087;-89
2020/12/23 05:37:07;;;;;;;4.88;1.77;;;;;;;12.73;81.90;99484.06;5049186;28;20032;-89
2020/12/23 05:39:32;;;;;;;3.97;1.67;;;;;;;12.92;81.14;99474.50;5054131;28;20029;-89
2020/12/23 05:42:01;;;;;;;4.63;1.70;;;;;;;12.93;81.30;99474.31;5053624;28;20029;-89
2020/12/23 05:44:28;;;;;;;6.85;1.77;;;;;;;12.92;80.70;99462.13;5052354;28;20033;-89
2020/12/23 05:46:54;;;;;;;3.00;1.23;;;;;;;12.97;80.99;99451.97;5052644;28;20561;-88
2020/12/23 05:49:22;;;;;;;9.50;2.55;;;;;;;12.88;80.93;99453.69;5053294;28;20082;-89
2020/12/23 05:51:49;;;;;;;10.85;2.30;;;;;;;12.85;81.42;99453.13;5053861;28;20031;-89
2020/12/23 05:54:18;;;;;;;7.88;1.85;;;;;;;12.85;81.11;99448.69;5054027;28;20029;-89
2020/12/23 05:56:43;;;;;;;5.82;1.98;;;;;;;12.97;80.93;99435.34;5053626;28;20024;-89
2020/12/23 05:59:09;;;;;;;7.82;2.10;;;;;;;13.03;80.43;99435.63;5053080;28;20079;-89
2020/12/23 06:01:37;;;;;;;9.63;2.10;;;;;;;13.01;80.93;99432.31;5040013;28;20109;-89
2020/12/23 06:04:04;;;;;;;3.97;1.67;;;;;;;13.06;80.69;99437.13;5037136;28;20048;-89
2020/12/23 06:06:30;;;;;;;6.25;1.60;;;;;;;13.02;80.88;99423.41;5052129;28;20471;-89
2020/12/23 06:09:01;;;;;;;8.95;2.30;;;;;;;13.00;80.92;99416.63;5052857;28;20063;-89
2020/12/23 06:11:28;;;;;;;8.02;2.22;;;;;;;13.00;80.92;99421.91;5051931;28;20082;-89
2020/12/23 06:13:56;;;;;;;8.15;2.33;;;;;;;12.97;81.04;99415.09;5051985;28;20037;-90
2020/12/23 06:16:29;;;;;;;10.45;2.50;;;;;;;12.93;81.21;99412.91;5042723;28;20124;-89
2020/12/23 06:18:59;;;;;;;7.70;2.25;;;;;;;12.97;81.01;99407.19;5033057;28;20017;-88
2020/12/23 06:21:26;;;;;;;6.55;1.73;;;;;;;13.08;80.89;99401.75;5044121;28;20021;-87
2020/12/23 06:24:00;;;;;;;4.35;2.00;;;;;;;13.01;80.46;99390.16;5052029;28;20116;-87
2020/12/23 06:26:30;;;;;;;7.20;2.70;;;;;;;12.96;80.88;99386.28;5060324;28;20387;-87
2020/12/23 06:29:00;;;;;;;6.53;2.10;;;;;;;13.01;81.36;99394.56;5033034;28;20357;-89
2020/12/23 06:31:28;;;;;;;7.55;2.08;;;;;;;13.19;79.92;99386.72;5044224;28;20028;-89
2020/12/23 06:33:54;;;;;;;9.35;2.45;;;;;;;13.15;80.53;99380.94;5052640;28;20112;-89
2020/12/23 06:36:20;;;;;;;10.63;2.75;;;;;;;12.87;81.60;99380.06;5068266;28;20420;-89
2020/12/23 06:38:45;;;;;;;9.93;3.35;;;;;;;13.08;80.70;99375.41;5050470;28;20044;-89
2020/12/23 06:41:21;;;;;;;9.77;2.47;;;;;;;13.19;80.10;99381.44;5048178;28;20425;-89
2020/12/23 06:43:54;;;;;;;7.45;3.22;;;;;;;13.12;80.43;99375.13;5036517;28;20035;-88
2020/12/23 06:46:19;;;;;;;8.88;2.88;;;;;;;13.34;79.43;99374.75;5052574;28;20602;-89
2020/12/23 06:48:45;;;;;;;10.52;3.90;;;;;;;13.22;80.30;99370.63;5051356;28;20345;-89
2020/12/23 06:51:10;;;;;;;9.35;3.33;;;;;;;13.15;80.70;99362.47;5052213;28;20032;-89
2020/12/23 06:53:36;;;;;;;15.52;4.45;;;;;;;13.09;80.48;99355.13;5052448;28;20017;-89
2020/12/23 06:56:02;;;;;;;10.98;3.30;;;;;;;13.14;80.20;99357.34;5048143;28;20029;-89
2020/12/23 06:58:40;;;;;;;12.00;3.42;;;;;;;12.85;81.62;99347.75;5038330;28;20033;-89
2020/12/23 07:01:36;;;;;;;9.45;2.70;;;;;;;13.20;80.88;99348.84;5039033;28;20395;-89
2020/12/23 07:04:01;;;;;;;7.20;2.58;;;;;;;13.36;80.02;99340.34;5050764;28;20480;-89
2020/12/23 07:06:32;;;;;;;9.45;2.83;;;;;;;13.55;78.83;99329.66;5049056;28;20026;-89
2020/12/23 07:09:00;;;;;;;8.35;2.67;;;;;;;13.34;79.87;99329.94;5050047;28;20026;-89
2020/12/23 07:11:30;;;;;;;13.10;2.90;;;;;;;13.33;80.18;99325.66;5050805;28;20033;-89
2020/12/23 07:13:57;;;;;;;11.18;2.28;;;;;;;13.36;79.32;99335.88;5048674;28;20437;-89
2020/12/23 07:16:24;;;;;;;12.50;2.63;;;;;;;13.10;80.49;99320.72;5036475;28;20024;-89
2020/12/23 07:18:50;;;;;;;10.93;2.50;;;;;;;13.16;80.81;99316.69;5050624;28;20033;-90
2020/12/23 07:21:23;;;;;;;7.35;3.00;;;;;;;13.19;80.67;99319.03;5047092;28;20556;-90
2020/12/23 07:23:49;;;;;;;8.48;2.03;;;;;;;13.38;79.82;99310.19;5042466;28;20028;-89
2020/12/23 07:26:14;;;;;;;8.18;2.80;;;;;;;13.42;79.86;99301.00;5046362;28;20032;-89
2020/12/23 07:28:42;;;;;;;7.50;2.40;;;;;;;13.34;80.28;99305.38;5051103;28;20112;-90
2020/12/23 07:31:09;;;;;;;9.82;2.60;;;;;;;13.40;79.69;99296.88;5050240;28;20479;-90
2020/12/23 07:33:37;;;;;;;8.10;2.15;;;;;;;13.40;79.89;99288.97;5036173;28;20021;-90
2020/12/23 07:36:03;;;;;;;5.43;2.05;;;;;;;13.31;80.13;99279.31;5038904;28;20033;-90
2020/12/23 07:38:31;;;;;;;6.10;2.03;;;;;;;13.42;79.22;99272.00;5043255;28;20056;-89
2020/12/23 07:40:57;;;;;;;3.33;1.33;;;;;;;13.52;78.85;99263.19;5050946;28;20029;-88
2020/12/23 07:43:22;;;;;;;3.80;1.40;;;;;;;13.36;80.04;99251.50;5048080;28;20032;-89
2020/12/23 07:45:49;;;;;;;4.28;1.20;;;;;;;13.34;79.80;99247.38;5049950;28;20027;-89
2020/12/23 07:48:19;;;;;;;3.67;1.25;;;;;;;13.49;79.16;99259.06;5036678;28;20030;-89
2020/12/23 07:50:55;;;;;;;6.30;1.85;;;;;;;13.37;79.42;99258.47;5050342;28;20021;-88
2020/12/23 07:53:29;;;;;;;4.18;1.35;;;;;;;13.27;79.82;99250.59;5045039;28;20108;-89
2020/12/23 07:56:05;;;;;;;1.40;1.00;;;;;;;13.39;79.25;99242.47;5029742;28;20037;-90
2020/12/23 07:58:31;;;;;;;3.25;0.73;;;;;;;13.36;79.46;99235.69;5055926;23;20385;-85
2020/12/23 08:00:57;;;;;;;3.63;1.35;;;;;;;13.22;80.11;99238.84;5009754;28;20026;-85
2020/12/23 08:03:26;;;;;;;3.55;0.73;;;;;;;13.33;79.69;99235.16;5007512;28;20026;-85
2020/12/23 08:06:03;;;;;;;1.02;0.60;;;;;;;13.16;79.84;99231.53;5011041;28;20554;-85
2020/12/23 08:08:29;;;;;;;1.02;0.47;;;;;;;13.27;79.82;99239.22;4994055;28;20096;-85
2020/12/23 08:10:54;;;;;;;0.80;0.50;;;;;;;13.31;79.62;99243.25;4993415;28;20508;-85
2020/12/23 08:13:29;;;;;;;1.20;0.30;;;;;;;13.35;80.00;99243.75;4996741;28;20034;-85
2020/12/23 08:16:05;;;;;;;0.98;0.40;;;;;;;13.38;79.33;99249.56;5010188;28;20494;-85
2020/12/23 08:18:30;;;;;;;1.38;0.40;;;;;;;13.43;79.43;99247.31;5014233;28;20554;-85
2020/12/23 08:20:56;;;;;;;0.68;0.50;;;;;;;13.42;79.56;99237.72;5004898;28;20034;-85
2020/12/23 08:23:21;;;;;;;0.68;0.57;;;;;;;13.32;79.79;99223.78;5013599;28;20109;-85
2020/12/23 08:25:46;;;;;;;0.68;0.20;;;;;;;13.44;79.49;99211.22;5012924;28;20667;-85
2020/12/23 08:28:12;;;;;;;3.75;0.30;;;;;;;13.58;79.06;99218.56;5014476;28;20033;-86
2020/12/23 08:30:41;;;;;;;0.75;0.15;;;;;;;13.70;78.35;99216.53;5013935;28;20440;-85
2020/12/23 08:33:11;;;;;;;0.90;0.17;;;;;;;13.62;79.30;99224.38;5012711;28;20561;-86
2020/12/23 08:35:38;;;;;;;0.88;0.32;;;;;;;13.60;78.99;99221.88;5013585;28;20029;-88
2020/12/23 08:38:05;;;;;;;1.05;0.30;;;;;;;13.63;78.98;99229.50;5009171;28;20034;-88
2020/12/23 08:40:31;;;;;;;1.50;0.50;;;;;;;13.56;79.77;99227.63;4995864;28;20061;-87
2020/12/23 08:42:58;;;;;;;0.90;0.10;;;;;;;13.59;79.71;99227.34;5012194;28;20034;-88
2020/12/23 08:45:29;;;;;;;6.78;0.57;;;;;;;13.60;79.41;99227.16;5020173;28;20022;-88
2020/12/23 08:47:56;;;;;;;6.75;0.70;;;;;;;13.76;79.46;99223.81;5015149;28;20034;-83
2020/12/23 08:50:24;;;;;;;1.15;0.55;;;;;;;13.78;78.92;99213.94;5007675;28;20092;-85
2020/12/23 08:52:51;;;;;;;1.02;0.52;;;;;;;13.58;79.90;99213.31;4994959;28;20052;-85
2020/12/23 08:55:23;;;;;;;1.67;0.57;;;;;;;13.76;79.18;99213.28;5007071;28;20030;-85
2020/12/23 08:58:05;;;;;;;1.85;0.73;;;;;;;13.94;79.19;99207.97;5004246;28;20748;-84
2020/12/23 09:00:32;;;;;;;2.58;0.60;;;;;;;13.91;79.21;99196.91;5011048;28;20045;-84
2020/12/23 09:02:58;;;;;;;1.13;0.40;;;;;;;13.76;79.97;99200.06;5011580;28;21192;-84
2020/12/23 09:05:26;;;;;;;1.55;0.55;;;;;;;13.84;79.51;99192.25;5000443;28;20092;-84
2020/12/23 09:08:08;;;;;;;2.08;1.00;;;;;;;13.79;79.68;99193.69;5012870;28;20033;-84
2020/12/23 09:10:35;;;;;;;3.25;0.35;;;;;;;13.93;78.58;99190.47;5008543;28;20026;-84
2020/12/23 09:13:18;;;;;;;4.70;0.90;;;;;;;14.16;78.49;99190.78;4997066;28;20620;-84
2020/12/23 09:15:52;;;;;;;4.70;0.57;;;;;;;14.31;78.21;99183.06;4999079;28;20039;-86
2020/12/23 09:18:18;;;;;;;4.65;0.90;;;;;;;14.31;77.94;99190.19;5009793;28;20123;-86
2020/12/23 09:20:43;;;;;;;5.20;0.70;;;;;;;14.40;77.80;99176.03;5004026;28;20069;-85
2020/12/23 09:23:10;;;;;;;1.98;0.60;;;;;;;14.44;78.14;99170.25;5013463;28;20491;-83
2020/12/23 09:25:36;;;;;;;5.32;0.50;;;;;;;14.30;77.85;99170.88;5004851;28;20037;-84
2020/12/23 09:28:06;;;;;;;7.15;1.35;;;;;;;14.50;77.73;99168.81;4994988;28;20117;-85
2020/12/23 09:30:36;;;;;;;4.68;1.00;;;;;;;14.39;78.13;99150.59;4995650;28;20485;-85
2020/12/23 09:33:03;;;;;;;5.93;1.33;;;;;;;14.37;77.29;99144.66;4994994;28;20026;-85
2020/12/23 09:35:29;;;;;;;7.07;1.45;;;;;;;14.39;77.86;99142.69;4994833;28;20023;-84
2020/12/23 09:38:13;;;;;;;5.85;0.73;;;;;;;14.37;78.21;99145.47;5007577;28;20383;-84
2020/12/23 09:40:49;;;;;;;10.02;3.33;;;;;;;14.62;77.16;99142.97;5011263;28;20030;-85
2020/12/23 09:43:20;;;;;;;11.50;3.40;;;;;;;14.72;76.51;99142.81;4994653;28;20026;-83
2020/12/23 09:45:47;;;;;;;10.40;2.65;;;;;;;14.93;75.96;99140.53;4994648;28;20037;-84
2020/12/23 09:48:16;;;;;;;6.85;1.65;;;;;;;14.81;76.15;99141.81;4994626;28;20026;-85
2020/12/23 09:50:43;;;;;;;9.00;1.33;;;;;;;14.72;76.00;99132.25;4994508;28;20050;-85
2020/12/23 09:53:09;;;;;;;4.90;1.20;;;;;;;15.11;75.20;99131.66;5008947;28;20157;-84
2020/12/23 09:55:35;;;;;;;7.13;1.42;;;;;;;14.84;76.00;99130.94;5013895;28;20502;-85
2020/12/23 09:58:00;;;;;;;4.88;0.98;;;;;;;14.75;76.35;99122.19;5014359;28;20120;-85
2020/12/23 10:00:27;;;;;;;12.55;1.20;;;;;;;14.54;76.33;99114.66;5013896;28;20022;-85
2020/12/23 10:02:53;;;;;;;9.88;1.42;;;;;;;14.66;76.31;99112.59;5012531;28;20076;-85
2020/12/23 10:05:18;;;;;;;7.32;1.10;;;;;;;14.45;78.21;99120.91;5013702;28;20042;-85
2020/12/23 10:07:44;;;;;;;5.80;1.40;;;;;;;14.65;77.20;99101.19;5000088;28;20034;-85
2020/12/23 10:10:09;;;;;;;8.02;1.10;;;;;;;14.63;77.25;99097.03;4994200;28;20023;-84
2020/12/23 10:12:36;;;;;;;8.35;1.13;;;;;;;14.44;77.60;99103.44;4994285;28;20030;-85
2020/12/23 10:15:03;;;;;;;7.78;1.70;;;;;;;14.59;77.00;99085.16;4997090;28;20022;-84
2020/12/23 10:17:28;;;;;;;12.80;1.60;;;;;;;14.64;76.62;99086.31;5013511;28;20092;-85
2020/12/23 10:19:53;;;;;;;8.13;1.45;;;;;;;14.78;76.52;99081.41;5013761;28;20030;-85
2020/12/23 10:22:19;;;;;;;8.70;1.40;;;;;;;14.64;76.46;99062.53;5003711;28;20109;-84
2020/12/23 10:24:44;;;;;;;12.00;1.48;;;;;;;14.56;77.24;99070.47;4994668;28;20030;-85
2020/12/23 10:27:09;;;;;;;18.58;1.98;;;;;;;14.46;77.34;99059.19;4993890;28;20034;-85
2020/12/23 10:29:35;;;;;;;13.63;2.22;;;;;;;14.65;76.49;99060.72;4993897;28;20444;-84
2020/12/23 10:32:00;;;;;;;14.30;1.70;;;;;;;14.36;77.54;99058.53;4993987;28;20023;-84
2020/12/23 10:34:25;;;;;;;13.40;1.92;;;;;;;14.78;76.01;99060.25;4993714;28;20030;-83
2020/12/23 10:36:51;;;;;;;8.48;1.45;;;;;;;14.64;76.62;99077.56;4992285;28;20041;-84
2020/12/23 10:39:19;;;;;;;10.48;1.70;;;;;;;14.54;76.86;99071.59;4993213;28;20072;-84
2020/12/23 10:41:45;;;;;;;13.68;2.08;;;;;;;14.53;76.62;99083.13;5010501;28;20030;-84
2020/12/23 10:44:11;;;;;;;6.28;1.27;;;;;;;14.66;76.08;99071.13;4998760;28;20034;-84
2020/12/23 10:46:37;;;;;;;8.23;2.13;;;;;;;14.72;74.66;99061.72;4993604;28;20027;-84
2020/12/23 10:49:04;;;;;;;9.82;1.45;;;;;;;14.74;73.85;99062.41;4993418;28;20081;-84
2020/12/23 10:51:29;;;;;;;10.15;1.50;;;;;;;14.90;72.56;99051.00;4993421;28;20049;-85
2020/12/23 10:53:55;;;;;;;8.98;1.67;;;;;;;14.93;72.26;99050.69;4993269;28;20026;-85
2020/12/23 10:56:20;;;;;;;9.43;2.30;;;;;;;14.70;72.58;99044.41;5001411;28;20030;-84
2020/12/23 10:58:45;;;;;;;13.10;2.20;;;;;;;14.93;71.93;99040.13;5007197;28;20045;-85
2020/12/23 11:01:15;;;;;;;11.05;1.40;;;;;;;14.99;71.76;99036.81;4993020;28;20033;-85
2020/12/23 11:03:40;;;;;;;9.20;1.70;;;;;;;14.77;72.52;99029.53;4992944;28;20023;-85
2020/12/23 11:06:06;;;;;;;15.80;2.22;;;;;;;14.55;72.73;99042.34;4993294;28;20026;-85
2020/12/23 11:08:31;;;;;;;7.75;1.55;;;;;;;14.73;72.46;99034.34;4993097;28;20025;-85
2020/12/23 11:10:56;;;;;;;11.55;2.20;;;;;;;14.83;71.87;99023.56;4993172;28;20061;-84
2020/12/23 11:13:22;;;;;;;13.40;2.45;;;;;;;14.83;72.33;99018.28;4999407;28;20057;-85
2020/12/23 11:15:47;;;;;;;11.60;2.35;;;;;;;14.72;73.36;99006.25;5012296;28;20022;-85
2020/12/23 11:18:12;;;;;;;12.48;1.95;;;;;;;14.57;72.96;99014.00;5012505;28;20408;-85
2020/12/23 11:20:39;;;;;;;12.27;1.40;;;;;;;14.44;74.01;99006.53;5012857;28;20097;-85
2020/12/23 11:23:05;;;;;;;20.17;2.70;;;;;;;14.48;74.03;98993.84;5012483;28;20030;-85
2020/12/23 11:25:30;;;;;;;12.63;2.75;;;;;;;14.68;73.45;98997.00;5012848;28;20110;-85
2020/12/23 11:27:56;;;;;;;13.20;2.20;;;;;;;14.46;73.34;98994.00;5006972;28;20030;-84
2020/12/23 11:30:22;;;;;;;15.30;2.00;;;;;;;14.01;74.54;98986.50;4992748;28;20018;-84
2020/12/23 11:32:47;;;;;;;15.00;1.80;;;;;;;14.10;73.63;98993.44;4991438;28;20041;-84
2020/12/23 11:35:12;;;;;;;12.40;1.98;;;;;;;14.32;73.44;98983.25;5007721;28;20026;-84
2020/12/23 11:37:38;;;;;;;15.43;2.25;;;;;;;14.43;73.22;98990.84;5011138;28;20076;-84